Impacts TAF Board
For situational awareness. Not to be used for flight planning purposes.
IDs:

KMCO - Orlando Intl, FL, US

Issued at 2059 UTC 30 Jun 2022
Updated at 2313 UTC 30 Jun 2022
Potential Impact None Slight Moderate High
Time2253Z 01/00Z 01/01Z 01/02Z 01/03Z 01/04Z 01/05Z 01/06Z 01/07Z 01/08Z 01/09Z 01/10Z 01/11Z 01/12Z>>
Type OBS PRVL PRVL PRVL PRVL PRVL PRVL PRVL PRVL PRVL PRVL PRVL PRVL PRVL
VIS 10 >6 >6 >6 >6 >6 >6 >6 >6 >6 >6 >6 >6 >6
CIG 210 50 50 50 50 140 140 140 140 140 140 140 140 140
Cover BKN OVC OVC OVC OVC BKN BKN BKN BKN BKN BKN BKN BKN BKN
FltCat VFR VFR VFR VFR VFR VFR VFR VFR VFR VFR VFR VFR VFR VFR
WX -- VCSH VCSH VCSH VCSH -- -- -- -- -- -- -- -- --
WDir 50 120 120 120 120 140 140 140 140 140 140 140 140 140
WSpd 10 6 6 6 6 4 4 4 4 4 4 4 4 4
WGst -- -- -- -- -- -- -- -- -- -- -- -- -- --
WSHgt -- -- -- -- -- -- -- -- -- -- -- -- -- --
WSDir -- -- -- -- -- -- -- -- -- -- -- -- -- --
WSSpd -- -- -- -- -- -- -- -- -- -- -- -- -- --
Raw TAF
KMCO 302059Z 3021/0124 VRB06KT P6SM VCTS FEW070CB SCT100 BKN250
  FM010000 12006KT P6SM VCSH FEW030 BKN050 OVC080
  FM010400 14004KT P6SM SCT080 BKN140
  FM011400 16006KT P6SM SCT035 SCT080 BKN200
  FM011700 17008KT P6SM VCTS SCT035CB BKN250


Raw METAR
KMCO 302253Z 05010KT 10SM FEW065 FEW090 SCT160 BKN210 BKN250 27/23 A3007 RMK AO2 LTG DSNT E AND SW RAE24 SLP181 P0000 T02670233
KMCO 302153Z 05008KT 10SM -RA SCT050 BKN090 BKN116 BKN250 27/23 A3008 RMK AO2 LTG DSNT NE AND S RAB29 TSE11 SLP184 P0000 T02720228
KMCO 302111Z 36003KT 10SM SCT075TCU BKN100 BKN160 BKN250 27/22 A3009 RMK AO2 LTG DSNT N TSE11 CB DSNT S TCU S T02720217
KMCO 302053Z 03006KT 10SM TS FEW070CB SCT100 BKN160 BKN250 27/22 A3009 RMK AO2 WSHFT 1954 LTG DSNT N-SE SLP187 OCNL LTGICCG OHD W-N TS OHD W-N MOV SW VCSH W-E T02720222 55003

METAR Board
Radar Display
Forecast Discussion
For situational awareness. Not to be used for flight planning purposes.